createdAt,value
2022-08-26T00:03:52.655Z,19.5
2022-08-26T00:08:52.332Z,19.5
2022-08-26T00:13:52.324Z,19.5
2022-08-26T00:18:52.587Z,19.4
2022-08-26T00:23:52.349Z,19.4
2022-08-26T00:28:52.215Z,19.4
2022-08-26T00:33:52.239Z,19.3
2022-08-26T00:38:52.293Z,19.3
2022-08-26T00:43:52.211Z,19.3
2022-08-26T00:48:52.423Z,19.2
2022-08-26T00:53:52.244Z,19.2
2022-08-26T00:58:52.237Z,19.1
2022-08-26T01:03:52.410Z,19.1
2022-08-26T01:08:52.203Z,19.0
2022-08-26T01:13:52.217Z,18.9
2022-08-26T01:18:52.336Z,18.9
2022-08-26T01:23:52.199Z,18.8
2022-08-26T01:28:52.134Z,18.6
2022-08-26T01:33:52.610Z,18.6
2022-08-26T01:39:02.416Z,18.5
2022-08-26T01:43:52.028Z,18.4
2022-08-26T01:48:52.347Z,18.3
2022-08-26T01:53:52.305Z,18.2
2022-08-26T01:58:52.106Z,18.1
2022-08-26T02:03:52.172Z,18.0
2022-08-26T02:08:52.179Z,17.9
2022-08-26T02:13:52.112Z,17.9
2022-08-26T02:18:52.250Z,17.9
2022-08-26T02:23:52.178Z,17.8
2022-08-26T02:28:52.047Z,17.8
2022-08-26T02:33:51.973Z,17.8
2022-08-26T02:38:52.190Z,17.8
2022-08-26T02:43:52.112Z,17.7
2022-08-26T02:48:52.313Z,17.7
2022-08-26T02:53:51.995Z,17.7
2022-08-26T02:58:52.590Z,17.6
2022-08-26T03:03:52.155Z,17.6
2022-08-26T03:08:52.039Z,17.6
2022-08-26T03:13:52.096Z,17.6
2022-08-26T03:18:52.596Z,17.6
2022-08-26T03:23:52.086Z,17.6
2022-08-26T03:28:51.922Z,17.6
2022-08-26T03:33:53.361Z,17.5
2022-08-26T03:38:52.038Z,17.5
2022-08-26T03:43:51.960Z,17.5
2022-08-26T03:48:52.392Z,17.4
2022-08-26T03:53:52.002Z,17.4
2022-08-26T03:58:51.918Z,17.3
2022-08-26T04:03:52.185Z,17.3
2022-08-26T04:08:51.843Z,17.2
2022-08-26T04:13:51.908Z,17.2
2022-08-26T04:18:52.165Z,17.2
2022-08-26T04:23:51.922Z,17.3
2022-08-26T04:28:52.259Z,17.3
2022-08-26T04:33:52.034Z,17.4
2022-08-26T04:38:51.852Z,17.5
2022-08-26T04:43:51.799Z,17.5
2022-08-26T04:48:52.015Z,17.6
2022-08-26T04:53:51.791Z,17.6
2022-08-26T04:58:51.806Z,17.7
2022-08-26T05:03:51.966Z,17.8
2022-08-26T05:08:51.716Z,17.9
2022-08-26T05:13:51.762Z,17.9
2022-08-26T05:18:51.827Z,18.0
2022-08-26T05:23:51.730Z,18.2
2022-08-26T05:28:51.750Z,18.3
2022-08-26T05:33:51.850Z,18.4
2022-08-26T05:38:51.700Z,18.5
2022-08-26T05:43:51.770Z,18.7
2022-08-26T05:48:51.778Z,18.9
2022-08-26T05:53:54.371Z,19.0
2022-08-26T05:58:51.809Z,19.2
2022-08-26T06:03:51.689Z,19.4
2022-08-26T06:08:51.693Z,19.6
2022-08-26T06:13:51.666Z,19.8
2022-08-26T06:18:51.625Z,19.9
2022-08-26T06:23:51.782Z,20.1
2022-08-26T06:28:51.667Z,20.3
2022-08-26T06:33:51.611Z,20.5
2022-08-26T06:38:51.556Z,20.7
2022-08-26T06:43:51.625Z,20.9
2022-08-26T06:48:51.575Z,21.1
2022-08-26T06:54:02.135Z,21.3
2022-08-26T06:59:12.260Z,21.5
2022-08-26T07:04:10.358Z,21.7
2022-08-26T07:08:51.617Z,22.0
2022-08-26T07:13:51.678Z,22.2
2022-08-26T07:18:51.600Z,22.5
2022-08-26T07:24:01.196Z,22.8
2022-08-26T07:28:51.540Z,23.1
2022-08-26T07:33:51.653Z,23.4
2022-08-26T07:38:51.700Z,23.6
2022-08-26T07:43:51.644Z,23.8
2022-08-26T07:48:51.597Z,24.0
2022-08-26T07:53:52.329Z,24.2
2022-08-26T07:58:52.195Z,24.5
2022-08-26T08:03:51.878Z,24.7
2022-08-26T08:08:51.823Z,24.8
2022-08-26T08:13:55.954Z,25.1
2022-08-26T08:18:51.538Z,25.3
2022-08-26T08:23:51.808Z,25.5
2022-08-26T08:28:51.550Z,25.6
2022-08-26T08:33:51.550Z,25.8
2022-08-26T08:38:51.625Z,26.0
2022-08-26T08:43:51.504Z,26.2
2022-08-26T08:48:51.593Z,26.4
2022-08-26T08:53:51.694Z,26.5
2022-08-26T08:58:51.530Z,26.8
2022-08-26T09:03:51.521Z,27.0
2022-08-26T09:08:51.707Z,27.1
2022-08-26T09:13:51.570Z,27.3
2022-08-26T09:18:51.473Z,27.5
2022-08-26T09:23:51.710Z,27.6
2022-08-26T09:28:51.399Z,27.8
2022-08-26T09:33:51.464Z,28.0
2022-08-26T09:38:51.496Z,28.2
2022-08-26T09:43:51.766Z,28.3
2022-08-26T09:53:51.438Z,28.5
2022-08-26T09:58:51.307Z,28.8
2022-08-26T10:03:51.769Z,29.0
2022-08-26T10:08:51.348Z,29.2
2022-08-26T10:13:51.439Z,29.4
2022-08-26T10:18:53.125Z,29.5
2022-08-26T10:23:51.370Z,29.6
2022-08-26T10:28:51.375Z,29.8
2022-08-26T10:33:52.559Z,29.9
2022-08-26T10:38:51.300Z,30.0
2022-08-26T10:43:51.348Z,30.1
2022-08-26T10:48:52.025Z,30.3
2022-08-26T10:53:51.655Z,30.3
2022-08-26T10:58:51.305Z,30.4
2022-08-26T11:03:52.438Z,30.5
2022-08-26T11:08:51.246Z,30.5
2022-08-26T11:13:51.345Z,30.5
2022-08-26T11:18:51.480Z,30.6
2022-08-26T11:23:52.941Z,30.7
2022-08-26T11:28:51.244Z,30.8
2022-08-26T11:33:51.257Z,30.9
2022-08-26T11:38:51.248Z,30.9
2022-08-26T11:43:51.346Z,30.9
2022-08-26T11:48:51.268Z,30.9
2022-08-26T11:53:51.297Z,30.8
2022-08-26T11:58:51.362Z,30.8
2022-08-26T12:03:52.442Z,30.7
2022-08-26T12:08:51.346Z,30.8
2022-08-26T12:13:51.241Z,30.9
2022-08-26T12:18:51.236Z,30.9
2022-08-26T12:23:51.186Z,30.9
2022-08-26T12:28:51.414Z,30.9
2022-08-26T12:33:51.324Z,30.9
2022-08-26T12:38:51.230Z,30.9
2022-08-26T12:43:51.391Z,30.9
2022-08-26T12:48:51.270Z,30.9
2022-08-26T12:53:51.205Z,31.0
2022-08-26T12:58:51.349Z,31.0
2022-08-26T13:03:51.204Z,31.0
2022-08-26T13:08:51.314Z,31.0
2022-08-26T13:13:53.514Z,31.0
2022-08-26T13:18:51.286Z,31.1
2022-08-26T13:23:51.258Z,31.1
2022-08-26T13:29:01.715Z,31.1
2022-08-26T13:33:51.294Z,31.2
2022-08-26T13:38:51.829Z,31.2
2022-08-26T13:43:51.934Z,31.0
2022-08-26T13:48:51.268Z,30.9
2022-08-26T13:53:51.441Z,30.8
2022-08-26T13:58:51.373Z,30.7
2022-08-26T14:03:51.296Z,30.7
2022-08-26T14:08:51.180Z,30.6
2022-08-26T14:13:51.369Z,30.5
2022-08-26T14:18:51.159Z,30.4
2022-08-26T14:23:51.245Z,30.3
2022-08-26T14:28:51.301Z,30.3
2022-08-26T14:33:51.119Z,30.3
2022-08-26T14:38:51.156Z,30.2
2022-08-26T14:43:51.562Z,30.2
2022-08-26T14:48:51.134Z,30.2
2022-08-26T14:53:51.171Z,30.2
2022-08-26T14:58:51.347Z,30.2
2022-08-26T15:03:51.120Z,30.2
2022-08-26T15:08:51.060Z,30.1
2022-08-26T15:13:51.136Z,30.1
2022-08-26T15:18:51.369Z,30.1
2022-08-26T15:23:51.217Z,30.0
2022-08-26T15:28:50.987Z,30.1
2022-08-26T15:33:51.271Z,30.0
2022-08-26T15:38:51.089Z,30.0
2022-08-26T15:43:51.136Z,30.0
2022-08-26T15:48:51.215Z,29.9
2022-08-26T15:53:51.083Z,29.9
2022-08-26T15:58:51.057Z,29.8
2022-08-26T16:03:51.339Z,29.7
2022-08-26T16:08:51.076Z,29.5
2022-08-26T16:13:51.109Z,29.3
2022-08-26T16:18:50.932Z,29.1
2022-08-26T16:23:51.070Z,29.0
2022-08-26T16:28:51.095Z,28.8
2022-08-26T16:33:51.194Z,28.6
2022-08-26T16:38:50.948Z,28.4
2022-08-26T16:43:50.966Z,28.1
2022-08-26T16:48:51.017Z,27.9
2022-08-26T16:53:50.913Z,27.7
2022-08-26T16:58:50.995Z,27.4
2022-08-26T17:03:51.041Z,27.0
2022-08-26T17:08:50.943Z,26.6
2022-08-26T17:13:50.871Z,26.4
2022-08-26T17:18:51.087Z,26.2
2022-08-26T17:23:51.770Z,26.1
2022-08-26T17:28:50.905Z,25.9
2022-08-26T17:33:50.926Z,25.6
2022-08-26T17:38:51.030Z,25.3
2022-08-26T17:43:50.973Z,25.1
2022-08-26T17:48:51.104Z,24.8
2022-08-26T17:53:50.825Z,24.5
2022-08-26T17:58:51.797Z,24.3
2022-08-26T18:03:51.175Z,24.1
2022-08-26T18:08:50.814Z,23.9
2022-08-26T18:13:51.171Z,23.8
2022-08-26T18:18:51.021Z,23.6
2022-08-26T18:23:51.170Z,23.4
2022-08-26T18:28:50.941Z,23.2
2022-08-26T18:33:50.911Z,23.1
2022-08-26T18:38:50.891Z,23.0
2022-08-26T18:43:51.772Z,22.9
2022-08-26T18:48:51.231Z,22.9
2022-08-26T18:53:50.830Z,22.8
2022-08-26T18:58:51.997Z,22.7
2022-08-26T19:03:51.004Z,22.6
2022-08-26T19:08:50.731Z,22.5
2022-08-26T19:13:50.778Z,22.3
2022-08-26T19:18:50.838Z,22.0
2022-08-26T19:23:50.873Z,21.9
2022-08-26T19:28:51.211Z,21.8
2022-08-26T19:33:50.905Z,21.7
2022-08-26T19:38:50.887Z,21.6
2022-08-26T19:43:51.921Z,21.5
2022-08-26T19:48:52.850Z,21.5
2022-08-26T19:53:50.765Z,21.4
2022-08-26T19:58:50.914Z,21.3
2022-08-26T20:03:50.900Z,21.2
2022-08-26T20:08:50.821Z,21.1
2022-08-26T20:13:50.936Z,21.1
2022-08-26T20:18:50.716Z,21.1
2022-08-26T20:23:50.704Z,21.2
2022-08-26T20:28:51.023Z,21.2
2022-08-26T20:33:50.741Z,21.2
2022-08-26T20:38:50.688Z,21.2
2022-08-26T20:43:50.847Z,21.2
2022-08-26T20:48:50.573Z,21.2
2022-08-26T20:53:50.621Z,21.2
2022-08-26T20:58:50.880Z,21.2
2022-08-26T21:03:50.751Z,21.3
2022-08-26T21:08:50.617Z,21.3
2022-08-26T21:14:04.347Z,21.3
2022-08-26T21:18:50.653Z,21.3
2022-08-26T21:23:50.665Z,21.2
2022-08-26T21:28:50.803Z,21.2
2022-08-26T21:33:50.637Z,21.0
2022-08-26T21:38:50.597Z,20.9
2022-08-26T21:43:50.735Z,20.7
2022-08-26T21:48:51.139Z,20.5
2022-08-26T21:53:50.525Z,20.3
2022-08-26T21:58:52.330Z,20.1
2022-08-26T22:03:50.491Z,20.0
2022-08-26T22:08:50.459Z,19.9
2022-08-26T22:13:50.670Z,19.8
2022-08-26T22:18:50.485Z,19.5
2022-08-26T22:23:50.461Z,19.4
2022-08-26T22:28:50.762Z,19.2
2022-08-26T22:33:50.388Z,19.2
2022-08-26T22:38:50.619Z,19.0
2022-08-26T22:43:50.746Z,18.9
2022-08-26T22:48:51.949Z,18.8
2022-08-26T22:53:50.524Z,18.8
2022-08-26T22:58:50.596Z,18.8
2022-08-26T23:03:50.568Z,18.8
2022-08-26T23:08:50.449Z,18.8
2022-08-26T23:13:50.709Z,18.8
2022-08-26T23:18:50.367Z,18.7
2022-08-26T23:23:50.415Z,18.7
2022-08-26T23:28:50.619Z,18.6
2022-08-26T23:33:50.410Z,18.6
2022-08-26T23:38:52.618Z,18.5
2022-08-26T23:43:50.507Z,18.5
2022-08-26T23:48:50.449Z,18.5
2022-08-26T23:53:50.529Z,18.5
2022-08-26T23:58:50.262Z,18.5
